At The Races


Race Cards, Odds & Results Tue 26th Oct

Choose a day to view races for...
Bangor-on-Dee
  1. ALL - View all races at this meeting
  2. 13:38 - 2m 145y (13 ran)
  3. 14:13 - 2m 145y (12 ran)
  4. 14:48 - 2m 4f 72y (10 ran)
  5. 15:23 - 2m 7f 7y (9 ran)
  6. 15:55 - 2m 1f 77y (9 ran)
  7. 16:30 - 2m 3f 123y (9 ran)
  8. 17:00 - 3m 5y (8 ran)
  9. 17:30 - 2m 145y (8 ran)
Catterick
  1. ALL - View all races at this meeting
  2. 13:00 - 5f (10 ran)
  3. 13:30 - 5f (11 ran)
  4. 14:05 - 5f (15 ran)
  5. 14:40 - 1m 4f 13y (12 ran)
  6. 15:15 - 7f 6y (11 ran)
  7. 15:50 - 1m 7f 189y (11 ran)
  8. 16:25 - 5f 212y (10 ran)
  9. 16:55 - 5f 212y (12 ran)
Chepstow
  1. ALL - View all races at this meeting
  2. 13:20 - 2m 3f 100y (14 ran)
  3. 13:55 - 2m 3f 100y (14 ran)
  4. 14:30 - 3m 2f 54y (6 ran)
  5. 15:05 - 2m 7f 131y (10 ran)
  6. 15:40 - 2m 11y (15 ran)
  7. 16:15 - 2m 7f 131y (5 ran)
  8. 16:50 - 2m 3f 100y (17 ran)
  9. 17:20 - 2m 11y (10 ran)
Newcastle
  1. ALL - View all races at this meeting
  2. 16:00 - 2m 56y (11 ran)
  3. 16:35 - 1m 4f 98y (11 ran)
  4. 17:10 - 1m 2f 42y (7 ran)
  5. 17:40 - 1m 5y (5 ran)
  6. 18:10 - 1m 5y (7 ran)
  7. 18:40 - 6f (12 ran)
  8. 19:10 - 6f (8 ran)
Curragh (IRE)
  1. ALL - View all races at this meeting
  2. 12:40 - 7f (24 ran)
  3. 13:10 - 6f (17 ran)
  4. 13:45 - 1m (7 ran)
  5. 14:20 - 1m 4f (11 ran)
  6. 14:55 - 1m 1f (23 ran)
  7. 15:30 - 1m 2f (18 ran)
  8. 16:05 - 5f (16 ran)
  9. 16:40 - 1m 4f (12 ran)
Chantilly (France)
  1. ALL - View all races at this meeting
  2. 12:52 - 1m (16 ran)
  3. 13:27 - 6f 211y (8 ran)
  4. 14:00 - 1m 1f (6 ran)
  5. 14:35 - 1m 1f (8 ran)
  6. 15:10 - 5f 212y (14 ran)
  7. 15:45 - 1m (17 ran)
  8. 16:20 - 1m (17 ran)
  9. 16:55 - 1m (17 ran)
Fontainebleau (France)
  1. ALL - View all races at this meeting
  2. 10:50 - 2m 6f 190y (6 ran)
  3. 11:20 - 2m 1f 196y (7 ran)
  4. 11:50 - 2m 1f 142y (7 ran)
  5. 12:25 - 2m 1f 142y (13 ran)
  6. 13:07 - 2m 1f 196y (8 ran)
  7. 13:42 - 2m 1f 142y (13 ran)
  8. 14:17 - 2m 1f 142y (16 ran)
Kenilworth (RSA)
  1. ALL - View all races at this meeting
  2. 11:05 - 4f 214y (9 ran)
  3. 11:35 - 7f 210y (6 ran)
  4. 12:05 - 4f 214y (10 ran)
  5. 12:45 - 4f 214y (6 ran)
  6. 13:25 - 6f 211y (8 ran)
  7. 14:00 - 1m 209y (10 ran)
  8. 14:35 - 7f 210y (8 ran)
  9. 15:10 - 7f 210y (9 ran)
Swan Hill (Australia)
  1. ALL - View all races at this meeting
  2. 03:30 - 5f 212y (8 ran)
  3. 04:00 - 6f 102y (14 ran)
  4. 04:30 - 7f 210y (9 ran)
  5. 05:00 - 4f 186y (8 ran)
  6. 05:30 - 4f 186y (7 ran)
  7. 06:00 - 1m 3f 205y (7 ran)
  8. 06:30 - 7f 210y (10 ran)
  9. 07:00 - 6f 102y (11 ran)
Vincennes (France)
  1. ALL - View all races at this meeting
  2. 14:52 - 1m 5f 92y (9 ran)
  3. 15:27 - 1m 5f 92y (14 ran)
  4. 16:02 - 1m 5f 92y (13 ran)
  5. 16:37 - 1m 6f 36y (12 ran)
  6. 17:12 - 1m 2f 96y (13 ran)
  7. 17:45 - 1m 2f 96y (11 ran)
  8. 18:15 - 1m 6f 36y (16 ran)
  9. 18:45 - 1m 6f 36y (12 ran)
  • Meeting(s) televised on ATR Channel
  • Archived race video footage available
Go to Plus Timeform

Click to show US racing

Finger Lakes (USA)
  1. ALL - View all races at this meeting
  2. R1 (18:10) - 5f 110y (6 ran)
  3. R2 (18:39) - 6f (7 ran)
  4. R3 (19:08) - 6f (6 ran)
  5. R4 (19:37) - 6f (5 ran)
  6. R5 (20:06) - 6f (6 ran)
  7. R6 (20:35) - 6f (7 ran)
  8. R7 (21:04) - 1m 70y (5 ran)
  9. R8 (21:33) - 5f 110y (7 ran)
Fort Erie (USA)
  1. ALL - View all races at this meeting
  2. R1 (18:00) - 5f (6 ran)
  3. R2 (18:28) - 5f 110y (5 ran)
  4. R3 (18:56) - 6f (7 ran)
  5. R4 (19:24) - 1m 70y (8 ran)
  6. R5 (19:52) - Abandoned
  7. R6 (20:20) - Race Void
  8. R7 (20:48) - Race Void
  9. R8 (21:16) - Race Void
  10. R9 (21:44) - Race Void
  11. R10 (22:13) - Race Void
Indiana Grand Race Course (USA)
  1. ALL - View all races at this meeting
  2. R1 (19:25) - 6f (7 ran)
  3. R2 (19:56) - 6f (6 ran)
  4. R3 (20:27) - 1m 70y (6 ran)
  5. R4 (20:58) - 5f 110y (7 ran)
  6. R5 (21:29) - 1m (8 ran)
  7. R6 (22:00) - 6f (7 ran)
  8. R7 (22:31) - 1m 70y (8 ran)
  9. R8 (23:02) - 5f 110y (8 ran)
  10. R9 (23:33) - 5f 110y (7 ran)
  11. R10 (00:04) - 1f 180y (7 ran)
Mahoning Valley (USA)
  1. ALL - View all races at this meeting
  2. R1 (17:45) - 1m 70y (10 ran)
  3. R2 (18:12) - 6f (7 ran)
  4. R3 (18:40) - 1m 70y (7 ran)
  5. R4 (19:09) - 5f 110y (7 ran)
  6. R5 (19:36) - 6f (9 ran)
  7. R6 (20:04) - 6f (9 ran)
  8. R7 (20:33) - 6f (12 ran)
  9. R8 (21:02) - 6f (10 ran)
Mountaineer (USA)
  1. ALL - View all races at this meeting
  2. R1 (00:00) - 5f (8 ran)
  3. R2 (00:25) - 5f 110y (7 ran)
  4. R3 (00:50) - 4f 110y (8 ran)
  5. R4 (01:15) - 5f 110y (8 ran)
  6. R5 (01:40) - 1m (9 ran)
  7. R6 (02:05) - 1m (8 ran)
  8. R7 (02:30) - 1m 70y (9 ran)
  9. R8 (02:55) - 6f (9 ran)
Penn National (USA)
  1. ALL - View all races at this meeting
  2. R1 (23:00) - 6f (5 ran)
  3. R2 (23:27) - 6f (6 ran)
  4. R3 (23:54) - 6f (8 ran)
  5. R4 (00:22) - 6f (6 ran)
  6. R5 (00:49) - 5f 110y (7 ran)
  7. R6 (01:16) - 6f (6 ran)
  8. R7 (01:43) - 6f (6 ran)
  9. R8 (02:10) - 5f 110y (7 ran)
Philadelphia Park (USA)
  1. ALL - View all races at this meeting
  2. R1 (17:55) - 6f (8 ran)
  3. R2 (18:22) - 1m (9 ran)
  4. R3 (18:49) - 6f (8 ran)
  5. R4 (19:16) - 6f (9 ran)
  6. R5 (19:43) - 1m 70y (6 ran)
  7. R6 (20:10) - 1m 70y (9 ran)
  8. R7 (20:37) - 1m 70y (9 ran)
  9. R8 (21:04) - 1m 70y (9 ran)
  10. R9 (21:31) - 6f (7 ran)
  11. R10 (21:58) - 6f 110y (11 ran)
Yonkers Harness (USA)
  1. ALL - View all races at this meeting
  2. R1 (00:15) - Abandoned
  3. R2 (00:35) - Abandoned
  4. R3 (00:55) - Abandoned
  5. R4 (01:15) - Abandoned
  6. R5 (01:35) - Abandoned
  7. R6 (01:55) - Abandoned
  8. R7 (02:15) - Abandoned
  9. R8 (02:35) - Abandoned
  10. R9 (02:55) - Abandoned
  11. R10 (03:15) - Abandoned
  12. R11 (03:35) - Abandoned
  13. R12 (03:55) - Abandoned
Zia Park (USA)
  1. ALL - View all races at this meeting
  2. R1 (19:30) - 1f 110y (8 ran)
  3. R2 (19:57) - 1f 180y (7 ran)
  4. R3 (20:24) - 3f 210y (8 ran)
  5. R4 (20:51) - 1f 130y (9 ran)
  6. R5 (21:18) - 1f 80y (9 ran)
  7. R6 (21:45) - 1f 130y (10 ran)
  8. R7 (22:12) - 5f 110y (7 ran)
  9. R8 (22:39) - 1m (5 ran)
  10. R9 (23:06) - 5f 110y (6 ran)
  11. R10 (23:33) - 6f 110y (8 ran)
  12. R11 (00:00) - 5f (11 ran)

Race times
Bangor-on-Dee: 13:38 | 14:13 | 14:48 | 15:23 | 15:55 | 16:30 | 17:00 | 17:30

17:30 Bangor-on-Dee, 26 Oct 2021

2m 145y


Trick Or Treat Open NH Flat Race (GBB Race) (Class 5)  (4YO to 6YO)
Winner £1,906 - 8 ran

Good to Soft


Weighed In

Pos Dist. Silk Cloth / Horse Name SP Age / Wt Jockey / Trainer OR
1   Grey, grey and white diabolo on sleeves 2. Gentle RiverATR Tracker 14/1 5 10 - 4 -
  chased leaders, raced keenly, led 14f out, edged right over 1f out, soon headed narrowly, led inside final furlong, stayed on well
2  3¼ Black, yellow cross belts, sleeves and cap 4. Largy ReachATR Tracker 17/2 5 11 - 0 -
  held up in touch in mid-division on inside, lost place but still going ok over 4f out, switched right and closed over 2f out, led narrowly just over 1f out, headed inside final furlong, no impression towards finish
3  2¼ Dark blue, light blue hoop, checked sleeves and cap 6. Dr Seb (FR) ATR Tracker 15/8 Fav 4 10 - 13 -
  held up in touch in mid-division, closed 4f out, edged right over 2f out, went 3rd over 1f out, stayed on, unable to get on terms
4  ¾ Light blue, dark blue armlets, dark blue cap 7. Horacio Apple's (FR) ATR Tracker 40/1 4 10 - 13 -
  held up in rear, pushed along over 3f out, stayed on from 2f out, went 4th final furlong
5  4¾ Straw, blue and straw quartered cap 1. Latitude (IRE) ATR Tracker 9/2 5 11 - 4 -
  prominent early, chased leaders, hung right over 2f out, weakened from over 1f out
6  1½ White, black star, black and white halved sleeves, white cap, black star 9. Rockinastorm (IRE) ATR Tracker 16/1 4 10 - 13 -
  held up in touch in mid-division on outside, headway over 4f out, lost place and not much room over 2f out
7  15 Red and white check, white cap 3. Great D'ange (FR) ATR Tracker 7/2 2Fav 5 11 - 0 -
  led, headed 14f out, prominent, weakened from 2f out
8  17 Royal blue, yellow striped sleeves, royal blue cap, yellow star 5. Cuddly Dudley (FR) ATR Tracker 11/2 4 10 - 13 -
  in rear, pushed along 6f out, well beaten final 3f
    Light blue, white epaulets, halved sleeves, red cap 8. King Arise (IRE) ATR Tracker Non Runner -
   
  • Off Time:17:36:22
  • Winning Time:4m 17.33s
  • CSF : £126.83
  • Tote Win : £12.40
  • Tote Place : £3.00, £2.70, £1.30
  • Tote Swinger : £9.10 (2-4), £5.60 (2-6), £4.10 (4-6)
  • Tote Exacta (2-4) : £122.60
  • Tote Trifecta (2-4-6) : £795.20

Last Updated: 27 Oct 2021 04:59:35


Racecourse Data Company